Saint Michaels, Arizona
Current Conditions -  °F | °C
As of 4:53 PM on Friday 24 Oct 2014 (Local Time) from KRQE Reporting Station
Clear Clear  
Wind Chill: 77°   Ceiling: Unl
Heat Index: 77°   Visibility: 10mi
Dew Point: 27°   Wind: 6mph
Humidity: 16%   Direction: 280°W
Pressure: 30.32"   Gusts: NA
Location:  35.64°N, 109.1°W
Report Text: KRQE 242253Z AUTO 28005KT 10SM CLR 25/M03 A3032 RMK AO2 SLP186 T02501028 TSNO
Loading
Personal Weather Stations






























Interactive Weather Map
Tropical Storm Tracking
New forecast layout! Learn more

10-Day Weather Forecast

Advertisements
Track Severe Weather on mobile